createdAt,value
2022-12-03T00:01:04.386Z,43.82
2022-12-03T00:03:49.119Z,43.58
2022-12-03T00:06:34.876Z,43.99
2022-12-03T00:09:19.897Z,43.82
2022-12-03T00:12:04.651Z,43.27
2022-12-03T00:14:49.375Z,43.28
2022-12-03T00:17:33.995Z,43.37
2022-12-03T00:20:18.799Z,43.71
2022-12-03T00:23:03.682Z,44.24
2022-12-03T00:25:48.572Z,43.64
2022-12-03T00:28:33.254Z,43.87
2022-12-03T00:31:18.182Z,43.94
2022-12-03T00:34:03.208Z,43.87
2022-12-03T00:36:47.938Z,43.79
2022-12-03T00:39:32.992Z,44.05
2022-12-03T00:42:17.822Z,43.62
2022-12-03T00:45:02.564Z,43.09
2022-12-03T00:47:47.184Z,42.96
2022-12-03T00:50:31.937Z,42.94
2022-12-03T00:53:16.543Z,43.12
2022-12-03T00:56:01.434Z,43.22
2022-12-03T00:58:45.987Z,42.91
2022-12-03T01:01:30.837Z,43.20
2022-12-03T01:04:15.982Z,43.31
2022-12-03T01:07:00.690Z,43.31
2022-12-03T01:09:45.547Z,43.21
2022-12-03T01:12:30.194Z,43.46
2022-12-03T01:15:14.983Z,43.05
2022-12-03T01:17:59.797Z,42.88
2022-12-03T01:20:44.543Z,42.27
2022-12-03T01:23:29.198Z,42.72
2022-12-03T01:26:13.908Z,42.74
2022-12-03T01:28:58.724Z,42.84
2022-12-03T01:31:43.557Z,42.51
2022-12-03T01:34:28.688Z,42.92
2022-12-03T01:37:13.322Z,43.13
2022-12-03T01:39:58.166Z,43.36
2022-12-03T01:42:42.921Z,43.03
2022-12-03T01:45:27.813Z,43.28
2022-12-03T01:48:12.526Z,43.00
2022-12-03T01:50:57.430Z,42.79
2022-12-03T01:53:42.116Z,42.60
2022-12-03T01:56:26.794Z,42.40
2022-12-03T01:59:11.464Z,42.57
2022-12-03T02:01:56.516Z,43.03
2022-12-03T02:04:41.734Z,42.65
2022-12-03T02:07:26.603Z,42.69
2022-12-03T02:10:11.796Z,42.44
2022-12-03T02:12:56.540Z,42.36
2022-12-03T02:15:41.313Z,42.31
2022-12-03T02:18:25.958Z,42.13
2022-12-03T02:21:10.575Z,42.52
2022-12-03T02:23:55.247Z,42.32
2022-12-03T02:26:40.193Z,42.59
2022-12-03T02:29:24.928Z,42.50
2022-12-03T02:32:09.670Z,42.75
2022-12-03T02:34:54.944Z,42.50
2022-12-03T02:37:39.971Z,42.60
2022-12-03T02:40:24.755Z,42.97
2022-12-03T02:43:09.482Z,42.48
2022-12-03T02:45:54.166Z,43.30
2022-12-03T02:48:38.835Z,43.65
2022-12-03T02:51:23.729Z,43.15
2022-12-03T02:54:08.432Z,43.45
2022-12-03T02:56:53.191Z,42.79
2022-12-03T02:59:38.072Z,42.89
2022-12-03T03:02:22.952Z,42.72
2022-12-03T03:05:07.609Z,43.18
2022-12-03T03:07:52.458Z,42.87
2022-12-03T03:10:37.138Z,43.36
2022-12-03T03:13:21.834Z,42.47
2022-12-03T03:16:06.623Z,42.88
2022-12-03T03:18:51.368Z,43.61
2022-12-03T03:21:36.211Z,43.23
2022-12-03T03:24:20.889Z,42.35
2022-12-03T03:27:05.583Z,41.93
2022-12-03T03:29:50.403Z,41.98
2022-12-03T03:32:35.202Z,41.40
2022-12-03T03:35:20.075Z,41.91
2022-12-03T03:38:04.791Z,42.68
2022-12-03T03:40:49.688Z,42.25
2022-12-03T03:43:34.342Z,42.22
2022-12-03T03:46:19.252Z,42.78
2022-12-03T03:49:03.946Z,42.29
2022-12-03T03:51:48.752Z,42.07
2022-12-03T03:54:33.500Z,41.89
2022-12-03T03:57:18.226Z,42.02
2022-12-03T04:00:02.877Z,41.97
2022-12-03T04:02:47.719Z,42.26
2022-12-03T04:05:32.657Z,42.85
2022-12-03T04:08:17.470Z,43.41
2022-12-03T04:11:02.215Z,43.16
2022-12-03T04:13:46.854Z,43.26
2022-12-03T04:16:31.695Z,42.69
2022-12-03T04:19:16.737Z,42.78
2022-12-03T04:22:01.714Z,43.02
2022-12-03T04:24:46.494Z,43.76
2022-12-03T04:27:31.232Z,43.80
2022-12-03T04:30:16.088Z,43.22
2022-12-03T04:33:00.855Z,42.99
2022-12-03T04:35:45.810Z,42.99
2022-12-03T04:38:30.532Z,42.60
2022-12-03T04:41:15.425Z,42.06
2022-12-03T04:44:00.040Z,42.81
2022-12-03T04:46:44.716Z,42.52
2022-12-03T04:49:29.378Z,42.76
2022-12-03T04:52:14.230Z,42.94
2022-12-03T04:54:58.970Z,42.19
2022-12-03T04:57:43.787Z,42.40
2022-12-03T05:00:28.651Z,42.29
2022-12-03T05:03:13.396Z,42.80
2022-12-03T05:05:58.370Z,42.42
2022-12-03T05:08:43.153Z,42.40
2022-12-03T05:11:27.905Z,42.29
2022-12-03T05:14:12.542Z,42.01
2022-12-03T05:16:57.427Z,42.54
2022-12-03T05:19:42.763Z,42.02
2022-12-03T05:22:27.538Z,42.38
2022-12-03T05:25:12.367Z,43.13
2022-12-03T05:27:57.228Z,43.40
2022-12-03T05:30:42.212Z,42.64
2022-12-03T05:33:27.411Z,42.21
2022-12-03T05:36:12.167Z,41.96
2022-12-03T05:38:56.919Z,42.50
2022-12-03T05:41:41.745Z,42.32
2022-12-03T05:44:26.451Z,42.83
2022-12-03T05:47:11.151Z,42.56
2022-12-03T05:49:55.890Z,42.68
2022-12-03T05:52:40.707Z,42.43
2022-12-03T05:55:25.405Z,42.26
2022-12-03T05:58:10.059Z,42.97
2022-12-03T06:00:54.906Z,41.95
2022-12-03T06:03:39.839Z,42.24
2022-12-03T06:06:24.900Z,41.51
2022-12-03T06:09:09.573Z,42.03
2022-12-03T06:11:54.318Z,41.80
2022-12-03T06:14:38.986Z,42.33
2022-12-03T06:17:23.755Z,42.40
2022-12-03T06:20:08.447Z,42.32
2022-12-03T06:22:53.203Z,42.22
2022-12-03T06:25:37.993Z,42.24
2022-12-03T06:28:22.847Z,41.77
2022-12-03T06:31:07.795Z,41.67
2022-12-03T06:33:52.436Z,42.75
2022-12-03T06:36:37.254Z,43.18
2022-12-03T06:39:22.011Z,42.58
2022-12-03T06:42:06.838Z,42.37
2022-12-03T06:44:51.770Z,42.48
2022-12-03T06:47:36.826Z,43.07
2022-12-03T06:50:21.638Z,43.10
2022-12-03T06:53:06.446Z,43.32
2022-12-03T06:55:51.337Z,43.29
2022-12-03T06:58:36.008Z,42.27
2022-12-03T07:01:20.843Z,42.36
2022-12-03T07:04:06.030Z,41.84
2022-12-03T07:06:50.773Z,41.01
2022-12-03T07:09:35.467Z,41.01
2022-12-03T07:12:20.278Z,42.32
2022-12-03T07:15:04.931Z,41.27
2022-12-03T07:17:49.755Z,41.48
2022-12-03T07:20:34.627Z,41.45
2022-12-03T07:23:19.339Z,41.84
2022-12-03T07:26:04.215Z,42.39
2022-12-03T07:28:49.046Z,41.24
2022-12-03T07:31:33.841Z,41.12
2022-12-03T07:34:18.525Z,41.74
2022-12-03T07:37:03.404Z,41.49
2022-12-03T07:39:48.096Z,40.70
2022-12-03T07:42:32.934Z,40.96
2022-12-03T07:45:17.787Z,41.22
2022-12-03T07:48:02.591Z,41.76
2022-12-03T07:50:47.422Z,42.30
2022-12-03T07:53:32.163Z,42.16
2022-12-03T07:56:17.011Z,42.15
2022-12-03T07:59:01.769Z,42.55
2022-12-03T08:01:46.509Z,42.14
2022-12-03T08:04:31.181Z,42.54
2022-12-03T08:07:15.993Z,42.77
2022-12-03T08:10:00.716Z,43.15
2022-12-03T08:12:45.443Z,42.82
2022-12-03T08:15:35.264Z,42.96
2022-12-03T08:18:23.962Z,43.50
2022-12-03T08:21:08.711Z,41.22
2022-12-03T08:23:53.647Z,39.75
2022-12-03T08:26:38.516Z,39.38
2022-12-03T08:29:23.203Z,37.76
2022-12-03T08:32:08.013Z,38.93
2022-12-03T08:34:53.260Z,39.69
2022-12-03T08:37:38.437Z,39.93
2022-12-03T08:40:23.184Z,39.46
2022-12-03T08:43:07.851Z,37.95
2022-12-03T08:45:52.779Z,38.44
2022-12-03T08:48:37.588Z,39.17
2022-12-03T08:51:22.251Z,39.33
2022-12-03T08:54:06.962Z,38.50
2022-12-03T08:56:51.671Z,37.10
2022-12-03T08:59:36.671Z,36.21
2022-12-03T09:02:22.998Z,36.36
2022-12-03T09:05:07.741Z,35.83
2022-12-03T09:07:52.612Z,35.34
2022-12-03T09:10:37.326Z,34.43
2022-12-03T09:13:22.084Z,34.60
2022-12-03T09:16:06.956Z,34.83
2022-12-03T09:18:51.617Z,34.65
2022-12-03T09:21:36.348Z,34.40
2022-12-03T09:24:21.061Z,34.10
2022-12-03T09:27:05.788Z,34.08
2022-12-03T09:29:50.505Z,33.65
2022-12-03T09:32:35.244Z,34.29
2022-12-03T09:35:20.099Z,33.71
2022-12-03T09:38:04.784Z,33.78
2022-12-03T09:40:49.563Z,34.09
2022-12-03T09:44:02.788Z,34.03
2022-12-03T09:46:39.296Z,33.36
2022-12-03T09:49:24.425Z,33.74
2022-12-03T09:52:09.851Z,32.55
2022-12-03T09:54:55.189Z,33.08
2022-12-03T09:57:40.621Z,32.92
2022-12-03T10:00:25.205Z,31.69
2022-12-03T10:03:09.987Z,30.41
2022-12-03T10:05:54.598Z,31.44
2022-12-03T10:08:39.445Z,30.38
2022-12-03T10:11:24.130Z,30.25
2022-12-03T10:14:08.782Z,28.64
2022-12-03T10:16:53.657Z,28.65
2022-12-03T10:19:38.705Z,28.34
2022-12-03T10:22:23.492Z,29.44
2022-12-03T10:25:08.140Z,28.16
2022-12-03T10:27:52.850Z,27.85
2022-12-03T10:30:37.566Z,28.24
2022-12-03T10:33:22.205Z,28.46
2022-12-03T10:36:06.923Z,29.42
2022-12-03T10:38:51.690Z,30.36
2022-12-03T10:41:36.420Z,29.47
2022-12-03T10:44:21.180Z,30.07
2022-12-03T10:47:06.134Z,28.45
2022-12-03T10:49:51.336Z,28.28
2022-12-03T10:52:36.118Z,29.48
2022-12-03T10:55:20.795Z,28.19
2022-12-03T10:58:05.595Z,28.62
2022-12-03T11:00:50.383Z,29.09
2022-12-03T11:03:35.210Z,27.90
2022-12-03T11:06:20.325Z,27.99
2022-12-03T11:09:08.774Z,28.50
2022-12-03T11:11:54.120Z,28.30
2022-12-03T11:14:38.786Z,29.21
2022-12-03T11:17:23.632Z,29.49
2022-12-03T11:20:08.319Z,27.49
2022-12-03T11:22:53.092Z,27.57
2022-12-03T11:25:37.858Z,27.39
2022-12-03T11:28:22.644Z,26.30
2022-12-03T11:31:07.443Z,26.25
2022-12-03T11:33:52.167Z,27.05
2022-12-03T11:37:00.849Z,26.74
2022-12-03T11:39:41.977Z,26.78
2022-12-03T11:42:26.852Z,26.75
2022-12-03T11:45:12.303Z,27.79
2022-12-03T11:47:57.052Z,26.76
2022-12-03T11:50:41.942Z,26.52
2022-12-03T11:53:26.544Z,26.29
2022-12-03T11:56:11.343Z,27.10
2022-12-03T11:58:56.059Z,28.04
2022-12-03T12:01:40.855Z,27.93
2022-12-03T12:04:25.711Z,28.72
2022-12-03T12:07:10.872Z,28.64
2022-12-03T12:09:55.981Z,28.38
2022-12-03T12:12:40.904Z,27.77
2022-12-03T12:15:25.693Z,28.58
2022-12-03T12:18:10.463Z,28.95
2022-12-03T12:20:55.207Z,29.06
2022-12-03T12:23:40.023Z,30.18
2022-12-03T12:26:24.939Z,28.64
2022-12-03T12:29:09.627Z,29.14
2022-12-03T12:31:54.463Z,27.50
2022-12-03T12:34:39.514Z,29.55
2022-12-03T12:37:24.238Z,29.04
2022-12-03T12:40:08.983Z,29.20
2022-12-03T12:42:53.688Z,29.51
2022-12-03T12:45:38.469Z,29.40
2022-12-03T12:48:23.273Z,28.34
2022-12-03T12:51:07.996Z,29.51
2022-12-03T12:53:52.762Z,29.96
2022-12-03T12:56:37.613Z,28.42
2022-12-03T12:59:22.388Z,29.73
2022-12-03T13:02:10.067Z,29.72
2022-12-03T13:04:54.943Z,29.17
2022-12-03T13:07:39.593Z,29.81
2022-12-03T13:10:24.374Z,29.41
2022-12-03T13:13:09.138Z,28.69
2022-12-03T13:15:53.970Z,28.94
2022-12-03T13:18:38.616Z,28.89
2022-12-03T13:21:23.379Z,28.33
2022-12-03T13:24:08.280Z,28.49
2022-12-03T13:26:52.909Z,29.48
2022-12-03T13:29:37.600Z,29.15
2022-12-03T13:32:22.309Z,30.09
2022-12-03T13:35:07.070Z,29.77
2022-12-03T13:37:51.724Z,29.05
2022-12-03T13:40:36.670Z,30.02
2022-12-03T13:43:21.293Z,30.43
2022-12-03T13:46:06.171Z,29.71
2022-12-03T13:48:50.855Z,29.16
2022-12-03T13:51:35.536Z,29.42
2022-12-03T13:54:20.405Z,29.48
2022-12-03T13:57:05.053Z,29.07
2022-12-03T13:59:49.744Z,29.16
2022-12-03T14:02:34.617Z,28.76
2022-12-03T14:05:19.281Z,29.22
2022-12-03T14:08:03.915Z,28.58
2022-12-03T14:10:48.521Z,28.82
2022-12-03T14:13:33.277Z,29.38
2022-12-03T14:16:18.158Z,29.57
2022-12-03T14:19:02.902Z,30.71
2022-12-03T14:21:47.663Z,31.07
2022-12-03T14:24:32.595Z,30.62
2022-12-03T14:27:17.230Z,30.98
2022-12-03T14:30:02.075Z,31.79
2022-12-03T14:32:46.819Z,32.11
2022-12-03T14:35:31.585Z,33.30
2022-12-03T14:38:16.215Z,32.74
2022-12-03T14:41:00.970Z,32.08
2022-12-03T14:43:45.652Z,33.49
2022-12-03T14:46:30.441Z,33.87
2022-12-03T14:49:15.208Z,34.51
2022-12-03T14:52:00.040Z,34.53
2022-12-03T14:54:44.754Z,34.49
2022-12-03T14:57:29.476Z,35.01
2022-12-03T15:00:14.303Z,34.64
2022-12-03T15:02:59.206Z,35.99
2022-12-03T15:05:43.858Z,35.79
2022-12-03T15:08:28.543Z,35.90
2022-12-03T15:11:13.564Z,35.33
2022-12-03T15:13:58.324Z,35.67
2022-12-03T15:16:43.177Z,35.88
2022-12-03T15:19:27.901Z,36.43
2022-12-03T15:22:12.735Z,35.75
2022-12-03T15:24:57.615Z,35.73
2022-12-03T15:27:42.399Z,36.08
2022-12-03T15:30:27.213Z,36.35
2022-12-03T15:33:11.981Z,36.27
2022-12-03T15:35:56.794Z,36.46
2022-12-03T15:38:41.520Z,36.86
2022-12-03T15:41:26.218Z,36.13
2022-12-03T15:44:10.908Z,36.58
2022-12-03T15:46:55.639Z,36.58
2022-12-03T15:49:40.470Z,37.43
2022-12-03T15:52:25.090Z,37.59
2022-12-03T15:55:09.925Z,37.61
2022-12-03T15:57:54.699Z,37.86
2022-12-03T16:00:39.662Z,37.99
2022-12-03T16:03:24.477Z,38.36
2022-12-03T16:06:09.241Z,39.08
2022-12-03T16:08:54.082Z,38.97
2022-12-03T16:11:38.957Z,38.60
2022-12-03T16:14:23.618Z,38.99
2022-12-03T16:17:08.393Z,38.34
2022-12-03T16:19:53.402Z,38.80
2022-12-03T16:22:38.602Z,38.69
2022-12-03T16:25:23.379Z,38.68
2022-12-03T16:28:08.074Z,38.96
2022-12-03T16:30:52.890Z,38.40
2022-12-03T16:33:38.066Z,38.82
2022-12-03T16:36:23.423Z,38.70
2022-12-03T16:39:08.204Z,39.49
2022-12-03T16:41:53.015Z,39.42
2022-12-03T16:44:37.718Z,39.53
2022-12-03T16:47:22.705Z,39.98
2022-12-03T16:50:07.980Z,40.57
2022-12-03T16:52:52.704Z,40.59
2022-12-03T16:55:52.736Z,40.54
2022-12-03T16:58:37.688Z,39.67
2022-12-03T17:01:22.498Z,39.58
2022-12-03T17:04:07.107Z,40.14
2022-12-03T17:06:52.021Z,40.58
2022-12-03T17:09:36.807Z,40.71
2022-12-03T17:12:21.570Z,40.29
2022-12-03T17:15:06.248Z,40.22
2022-12-03T17:17:50.959Z,40.73
2022-12-03T17:20:35.623Z,40.53
2022-12-03T17:23:20.331Z,40.13
2022-12-03T17:26:05.056Z,39.90
2022-12-03T17:28:49.821Z,40.31
2022-12-03T17:31:40.000Z,40.46
2022-12-03T17:34:26.483Z,40.53
2022-12-03T17:37:11.152Z,40.24
2022-12-03T17:39:56.227Z,39.72
2022-12-03T17:42:41.173Z,40.16
2022-12-03T17:45:25.925Z,40.37
2022-12-03T17:48:10.699Z,40.68
2022-12-03T17:50:55.405Z,41.21
2022-12-03T17:53:40.266Z,40.71
2022-12-03T17:56:25.103Z,40.53
2022-12-03T17:59:09.932Z,40.80
2022-12-03T18:01:54.779Z,41.15
2022-12-03T18:04:39.953Z,40.92
2022-12-03T18:07:24.681Z,41.42
2022-12-03T18:10:09.545Z,41.54
2022-12-03T18:12:59.869Z,41.77
2022-12-03T18:15:46.492Z,41.52
2022-12-03T18:18:31.352Z,41.85
2022-12-03T18:21:16.110Z,41.88
2022-12-03T18:24:00.894Z,41.98
2022-12-03T18:26:45.811Z,41.88
2022-12-03T18:29:30.502Z,41.92
2022-12-03T18:32:28.190Z,41.49
2022-12-03T18:35:14.245Z,41.50
2022-12-03T18:37:59.043Z,41.80
2022-12-03T18:40:43.802Z,41.43
2022-12-03T18:43:28.482Z,41.41
2022-12-03T18:46:31.291Z,41.45
2022-12-03T18:49:17.966Z,41.78
2022-12-03T18:52:02.710Z,41.43
2022-12-03T18:54:47.404Z,42.37
2022-12-03T18:57:32.329Z,48.73
2022-12-03T19:00:17.531Z,43.19
2022-12-03T19:03:03.929Z,41.58
2022-12-03T19:05:49.255Z,41.34
2022-12-03T19:08:33.965Z,41.05
2022-12-03T19:11:18.734Z,42.68
2022-12-03T19:14:03.564Z,47.34
2022-12-03T19:16:48.400Z,47.18
2022-12-03T19:19:33.668Z,42.65
2022-12-03T19:22:18.456Z,40.48
2022-12-03T19:25:03.131Z,40.29
2022-12-03T19:27:47.837Z,40.31
2022-12-03T19:30:32.515Z,42.00
2022-12-03T19:33:18.282Z,41.49
2022-12-03T19:36:03.576Z,41.76
2022-12-03T19:38:53.484Z,41.44
2022-12-03T19:41:41.378Z,41.09
2022-12-03T19:44:26.042Z,41.15
2022-12-03T19:47:10.855Z,41.46
2022-12-03T19:49:56.022Z,41.52
2022-12-03T19:52:41.387Z,41.42
2022-12-03T19:55:26.010Z,42.25
2022-12-03T19:58:10.816Z,41.47
2022-12-03T20:00:55.428Z,43.82
2022-12-03T20:03:40.082Z,43.14
2022-12-03T20:06:24.887Z,44.58
2022-12-03T20:09:09.633Z,41.77
2022-12-03T20:11:54.432Z,48.41
2022-12-03T20:14:39.118Z,43.93
2022-12-03T20:17:23.840Z,46.56
2022-12-03T20:20:08.639Z,40.57
2022-12-03T20:22:53.480Z,40.82
2022-12-03T20:25:38.259Z,43.32
2022-12-03T20:28:23.017Z,43.53
2022-12-03T20:31:07.772Z,49.94
2022-12-03T20:33:52.611Z,48.08
2022-12-03T20:36:37.407Z,44.85
2022-12-03T20:39:22.290Z,40.86
2022-12-03T20:42:07.058Z,39.34
2022-12-03T20:44:51.847Z,42.52
2022-12-03T20:47:36.696Z,45.42
2022-12-03T20:50:21.450Z,39.94
2022-12-03T20:53:23.621Z,38.55
2022-12-03T20:56:09.581Z,38.98
2022-12-03T20:58:54.472Z,38.68
2022-12-03T21:01:39.234Z,39.11
2022-12-03T21:04:24.135Z,39.37
2022-12-03T21:07:08.847Z,39.25
2022-12-03T21:09:53.893Z,40.09
2022-12-03T21:12:39.007Z,39.64
2022-12-03T21:15:23.689Z,39.91
2022-12-03T21:18:08.596Z,40.00
2022-12-03T21:20:53.276Z,40.21
2022-12-03T21:23:38.051Z,40.28
2022-12-03T21:26:22.635Z,39.98
2022-12-03T21:29:07.450Z,40.21
2022-12-03T21:31:52.198Z,40.10
2022-12-03T21:34:36.905Z,40.45
2022-12-03T21:37:21.890Z,40.70
2022-12-03T21:40:06.576Z,40.98
2022-12-03T21:42:51.448Z,40.94
2022-12-03T21:45:36.136Z,41.44
2022-12-03T21:48:21.034Z,41.11
2022-12-03T21:51:05.690Z,41.28
2022-12-03T21:53:50.545Z,40.94
2022-12-03T21:56:35.195Z,40.71
2022-12-03T21:59:19.956Z,40.57
2022-12-03T22:02:04.780Z,40.67
2022-12-03T22:04:50.047Z,41.04
2022-12-03T22:07:35.060Z,40.72
2022-12-03T22:10:19.698Z,40.78
2022-12-03T22:13:04.601Z,40.92
2022-12-03T22:15:49.422Z,41.06
2022-12-03T22:18:34.251Z,40.83
2022-12-03T22:21:18.910Z,40.77
2022-12-03T22:24:03.854Z,40.67
2022-12-03T22:26:48.593Z,40.65
2022-12-03T22:29:33.429Z,40.67
2022-12-03T22:32:18.349Z,40.75
2022-12-03T22:35:03.007Z,40.63
2022-12-03T22:37:47.917Z,41.27
2022-12-03T22:40:32.684Z,41.01
2022-12-03T22:43:17.525Z,40.71
2022-12-03T22:46:02.347Z,40.51
2022-12-03T22:48:46.972Z,39.89
2022-12-03T22:51:31.623Z,40.43
2022-12-03T22:54:19.420Z,41.13
2022-12-03T22:57:08.774Z,41.07
2022-12-03T22:59:53.805Z,41.05
2022-12-03T23:02:38.840Z,40.56
2022-12-03T23:05:23.795Z,40.64
2022-12-03T23:08:08.494Z,41.12
2022-12-03T23:10:53.356Z,41.15
2022-12-03T23:13:38.130Z,42.00
2022-12-03T23:16:23.010Z,41.55
2022-12-03T23:19:08.123Z,41.52
2022-12-03T23:21:52.990Z,41.60
2022-12-03T23:24:37.818Z,42.00
2022-12-03T23:27:22.677Z,41.56
2022-12-03T23:30:07.370Z,41.42
2022-12-03T23:32:52.228Z,42.14
2022-12-03T23:35:36.975Z,42.24
2022-12-03T23:38:21.773Z,42.43
2022-12-03T23:41:06.476Z,42.12
2022-12-03T23:43:51.107Z,42.43
2022-12-03T23:46:35.785Z,42.66
2022-12-03T23:49:20.459Z,42.82
2022-12-03T23:52:05.290Z,42.80
2022-12-03T23:54:49.918Z,43.49
2022-12-03T23:57:34.878Z,42.69
